Time;durP1;ratioP1;P1;durP2;ratioP2;P2;SDS_P1;SDS_P2;PMS_P1;PMS_P2;Temp;Humidity;BMP_temperature;BMP_pressure;BME280_temperature;BME280_humidity;BME280_pressure;Samples;Min_cycle;Max_cycle;Signal;HPM_P1;HPM_P2
2021/09/09 00:00:30;;;;;;;13.30;9.00;;;16.50;99.90;;;;;;4825594;29;20190;-63
2021/09/09 00:02:56;;;;;;;12.30;8.90;;;16.50;99.90;;;;;;4824693;29;20186;-63
2021/09/09 00:05:21;;;;;;;11.60;8.33;;;16.40;99.90;;;;;;4826331;29;20182;-64
2021/09/09 00:07:47;;;;;;;13.77;8.83;;;16.40;99.90;;;;;;4826148;29;20270;-63
2021/09/09 00:10:13;;;;;;;11.20;8.77;;;16.30;99.90;;;;;;4826110;29;20202;-64
2021/09/09 00:12:40;;;;;;;16.63;9.47;;;16.30;99.90;;;;;;4825992;29;20189;-63
2021/09/09 00:15:06;;;;;;;10.10;8.37;;;16.20;99.90;;;;;;4826117;29;20904;-63
2021/09/09 00:17:31;;;;;;;10.07;8.10;;;16.20;99.90;;;;;;4825960;29;20476;-64
2021/09/09 00:19:57;;;;;;;13.30;8.30;;;16.20;99.90;;;;;;4825822;29;20495;-64
2021/09/09 00:22:23;;;;;;;12.87;9.20;;;16.10;99.90;;;;;;4825890;29;20230;-63
2021/09/09 00:24:48;;;;;;;12.87;8.00;;;16.10;99.90;;;;;;4825873;29;20210;-63
2021/09/09 00:27:14;;;;;;;13.80;9.57;;;16.10;99.90;;;;;;4825925;29;20215;-64
2021/09/09 00:29:40;;;;;;;11.60;9.40;;;16.00;99.90;;;;;;4825767;29;20214;-63
2021/09/09 00:32:06;;;;;;;12.07;9.70;;;16.00;99.90;;;;;;4824636;29;20538;-63
2021/09/09 00:34:31;;;;;;;10.03;8.43;;;16.00;99.90;;;;;;4825803;29;20356;-62
2021/09/09 00:36:57;;;;;;;11.40;8.10;;;15.90;99.90;;;;;;4825767;29;20876;-63
2021/09/09 00:39:22;;;;;;;14.40;10.00;;;15.90;99.90;;;;;;4824434;29;20681;-63
2021/09/09 00:41:48;;;;;;;11.30;9.27;;;15.90;99.90;;;;;;4824416;29;20248;-64
2021/09/09 00:44:25;;;;;;;11.73;8.97;;;15.80;99.90;;;;;;4824232;29;20210;-63
2021/09/09 00:47:02;;;;;;;9.83;8.40;;;15.80;99.90;;;;;;4824384;29;20234;-63
2021/09/09 00:49:29;;;;;;;12.70;8.73;;;15.80;99.90;;;;;;4825531;29;20468;-63
2021/09/09 00:51:55;;;;;;;13.10;9.00;;;15.80;99.90;;;;;;4825561;29;20430;-64
2021/09/09 00:54:21;;;;;;;12.67;8.90;;;15.70;99.90;;;;;;4824853;29;20447;-62
2021/09/09 00:56:49;;;;;;;15.80;8.00;;;15.70;99.90;;;;;;4825419;29;20465;-63
2021/09/09 00:59:14;;;;;;;10.37;9.27;;;15.70;99.90;;;;;;4825480;29;20468;-63
2021/09/09 01:01:41;;;;;;;11.30;8.63;;;15.70;99.90;;;;;;4825382;29;20823;-64
2021/09/09 01:04:07;;;;;;;11.10;9.70;;;15.70;99.90;;;;;;4825286;29;20262;-63
2021/09/09 01:06:32;;;;;;;13.50;10.13;;;15.70;99.90;;;;;;4825346;29;20814;-63
2021/09/09 01:09:00;;;;;;;12.40;9.77;;;15.60;99.90;;;;;;4825307;29;20213;-63
2021/09/09 01:11:25;;;;;;;11.83;8.93;;;15.60;99.90;;;;;;4825331;29;20299;-63
2021/09/09 01:13:52;;;;;;;11.50;8.80;;;15.60;99.90;;;;;;4825086;29;20562;-63
2021/09/09 01:16:19;;;;;;;12.93;9.17;;;15.50;99.90;;;;;;4825298;29;20261;-63
2021/09/09 01:18:44;;;;;;;15.73;9.30;;;15.50;99.90;;;;;;4825129;29;20445;-63
2021/09/09 01:21:10;;;;;;;13.77;9.60;;;15.40;99.90;;;;;;4825209;29;20930;-64
2021/09/09 01:23:36;;;;;;;12.60;11.13;;;15.40;99.90;;;;;;4825061;29;20578;-62
2021/09/09 01:26:04;;;;;;;14.20;10.47;;;15.30;99.90;;;;;;4825073;29;20500;-63
2021/09/09 01:28:29;;;;;;;13.07;9.80;;;15.30;99.90;;;;;;4823749;29;20464;-63
2021/09/09 01:30:55;;;;;;;18.50;10.43;;;15.30;99.90;;;;;;4825038;29;20943;-63
2021/09/09 01:33:21;;;;;;;13.37;10.57;;;15.20;99.90;;;;;;4824930;29;20262;-63
2021/09/09 01:35:47;;;;;;;13.63;11.20;;;15.20;99.90;;;;;;4824716;29;20229;-62
2021/09/09 01:38:20;;;;;;;11.53;9.10;;;15.20;99.90;;;;;;4823742;29;20247;-64
2021/09/09 01:40:46;;;;;;;13.73;10.70;;;15.10;99.90;;;;;;4823722;29;20429;-64
2021/09/09 01:43:11;;;;;;;12.27;10.13;;;15.10;99.90;;;;;;4823607;29;20465;-63
2021/09/09 01:45:37;;;;;;;12.80;10.47;;;15.10;99.90;;;;;;4825013;29;20760;-63
2021/09/09 01:48:03;;;;;;;14.43;10.30;;;15.00;99.90;;;;;;4824775;29;20190;-62
2021/09/09 01:50:28;;;;;;;14.97;10.30;;;15.00;99.90;;;;;;4824732;29;20719;-63
2021/09/09 01:52:54;;;;;;;14.53;9.47;;;15.00;99.90;;;;;;4824663;29;20409;-64
2021/09/09 01:55:20;;;;;;;14.50;10.50;;;15.00;99.90;;;;;;4824884;29;20182;-63
2021/09/09 01:57:46;;;;;;;10.70;9.60;;;15.00;99.90;;;;;;4824649;29;20521;-62
2021/09/09 02:00:12;;;;;;;13.27;10.47;;;14.90;99.90;;;;;;4824686;29;20198;-62
2021/09/09 02:02:39;;;;;;;12.27;9.53;;;14.90;99.90;;;;;;4823260;29;20437;-64
2021/09/09 02:05:05;;;;;;;12.33;9.97;;;14.90;99.90;;;;;;4823383;29;20481;-63
2021/09/09 02:07:30;;;;;;;14.27;9.90;;;14.80;99.90;;;;;;4823385;29;20452;-63
2021/09/09 02:09:56;;;;;;;13.50;9.83;;;14.80;99.90;;;;;;4824579;29;20420;-64
2021/09/09 02:12:22;;;;;;;13.90;9.50;;;14.70;99.90;;;;;;4824588;29;20193;-64
2021/09/09 02:14:47;;;;;;;14.67;10.50;;;14.70;99.90;;;;;;4824896;29;20214;-63
2021/09/09 02:17:13;;;;;;;16.37;10.67;;;14.70;99.90;;;;;;4824594;29;20584;-63
2021/09/09 02:19:38;;;;;;;17.67;9.80;;;14.70;99.90;;;;;;4824862;29;20288;-62
2021/09/09 02:22:04;;;;;;;13.80;9.57;;;14.70;99.90;;;;;;4824644;29;20178;-63
2021/09/09 02:24:30;;;;;;;12.23;9.07;;;14.70;99.90;;;;;;4823218;29;20584;-63
2021/09/09 02:26:55;;;;;;;17.37;9.20;;;14.70;99.90;;;;;;4826255;29;20196;-64
2021/09/09 02:29:21;;;;;;;13.83;9.90;;;14.60;99.90;;;;;;4827708;29;20197;-63
2021/09/09 02:31:47;;;;;;;10.93;9.50;;;14.60;99.90;;;;;;4826878;29;20189;-63
2021/09/09 02:34:12;;;;;;;11.57;9.50;;;14.60;99.90;;;;;;4827656;29;20238;-62
2021/09/09 02:36:38;;;;;;;14.00;9.77;;;14.60;99.90;;;;;;4827650;29;20221;-63
2021/09/09 02:39:03;;;;;;;14.17;10.60;;;14.60;99.90;;;;;;4827482;29;20737;-63
2021/09/09 02:41:29;;;;;;;19.10;9.60;;;14.50;99.90;;;;;;4826390;29;20185;-63
2021/09/09 02:43:55;;;;;;;15.20;11.13;;;14.50;99.90;;;;;;4827732;29;20298;-63
2021/09/09 02:46:20;;;;;;;12.53;9.67;;;14.50;99.90;;;;;;4826333;29;20307;-63
2021/09/09 02:48:46;;;;;;;13.03;9.23;;;14.40;99.90;;;;;;4826259;29;20689;-64
2021/09/09 02:51:11;;;;;;;10.50;9.37;;;14.40;99.90;;;;;;4826209;29;20552;-63
2021/09/09 02:53:37;;;;;;;10.83;9.37;;;14.40;99.90;;;;;;4826516;29;20362;-63
2021/09/09 02:56:03;;;;;;;15.80;9.80;;;14.40;99.90;;;;;;4827237;29;20182;-64
2021/09/09 02:58:28;;;;;;;14.70;9.77;;;14.30;99.90;;;;;;4827386;29;20210;-63
2021/09/09 03:00:54;;;;;;;13.83;9.73;;;14.30;99.90;;;;;;4827254;29;20189;-63
2021/09/09 03:03:21;;;;;;;16.57;9.87;;;14.30;99.90;;;;;;4827284;29;20213;-64
2021/09/09 03:05:47;;;;;;;12.80;10.10;;;14.30;99.90;;;;;;4827132;29;20557;-63
2021/09/09 03:08:12;;;;;;;13.87;9.87;;;14.30;99.90;;;;;;4827637;29;20556;-63
2021/09/09 03:10:38;;;;;;;12.40;8.97;;;14.30;99.90;;;;;;4827147;29;20420;-63
2021/09/09 03:13:04;;;;;;;12.10;9.27;;;14.30;99.90;;;;;;4827022;29;20247;-63
2021/09/09 03:15:30;;;;;;;10.80;8.87;;;14.30;99.90;;;;;;4827115;29;20181;-64
2021/09/09 03:17:55;;;;;;;15.37;10.10;;;14.30;99.90;;;;;;4826855;29;20214;-63
2021/09/09 03:20:21;;;;;;;12.07;10.13;;;14.30;99.90;;;;;;4825743;29;20178;-64
2021/09/09 03:22:46;;;;;;;13.40;9.53;;;14.30;99.90;;;;;;4825555;29;20181;-65
2021/09/09 03:25:12;;;;;;;11.37;8.77;;;14.30;99.90;;;;;;4826828;29;20209;-64
2021/09/09 03:27:38;;;;;;;12.10;9.33;;;14.30;99.90;;;;;;4826632;29;20660;-65
2021/09/09 03:30:04;;;;;;;11.90;9.17;;;14.30;99.90;;;;;;4825563;29;20294;-63
2021/09/09 03:32:30;;;;;;;14.70;9.33;;;14.30;99.90;;;;;;4826812;29;20182;-65
2021/09/09 03:34:55;;;;;;;14.00;9.40;;;14.30;99.90;;;;;;4825173;29;20525;-63
2021/09/09 03:37:21;;;;;;;15.23;9.40;;;14.30;99.90;;;;;;4826094;29;20210;-63
2021/09/09 03:39:46;;;;;;;12.50;9.30;;;14.30;99.90;;;;;;4826247;29;20214;-63
2021/09/09 03:42:12;;;;;;;16.57;9.10;;;14.30;99.90;;;;;;4826668;29;20577;-64
2021/09/09 03:44:37;;;;;;;12.90;8.57;;;14.30;99.90;;;;;;4825530;29;20258;-63
2021/09/09 03:47:03;;;;;;;12.03;9.37;;;14.30;99.90;;;;;;4826577;29;20170;-65
2021/09/09 03:49:29;;;;;;;18.77;9.80;;;14.30;99.90;;;;;;4827006;29;20229;-63
2021/09/09 03:51:54;;;;;;;14.47;9.70;;;14.30;99.90;;;;;;4825263;29;20178;-64
2021/09/09 03:54:20;;;;;;;11.80;8.73;;;14.30;99.90;;;;;;4825340;29;20780;-63
2021/09/09 03:56:46;;;;;;;13.80;9.30;;;14.30;99.90;;;;;;4826363;29;20681;-65
2021/09/09 03:59:11;;;;;;;11.33;9.20;;;14.30;99.90;;;;;;4826620;29;20245;-63
2021/09/09 04:01:37;;;;;;;11.80;8.07;;;14.20;99.90;;;;;;4826292;29;20182;-64
2021/09/09 04:04:02;;;;;;;12.27;9.50;;;14.20;99.90;;;;;;4825011;29;20300;-63
2021/09/09 04:06:28;;;;;;;13.20;9.10;;;14.30;99.90;;;;;;4826254;29;20189;-64
2021/09/09 04:08:54;;;;;;;11.57;9.27;;;14.30;99.90;;;;;;4826423;29;20217;-64
2021/09/09 04:11:19;;;;;;;14.07;10.10;;;14.30;99.90;;;;;;4826216;29;20186;-65
2021/09/09 04:13:45;;;;;;;10.13;8.50;;;14.30;99.90;;;;;;4826231;29;20612;-63
2021/09/09 04:16:10;;;;;;;12.20;9.40;;;14.30;99.90;;;;;;4826049;29;20174;-63
2021/09/09 04:18:36;;;;;;;12.40;10.43;;;14.30;99.90;;;;;;4825677;29;20539;-63
2021/09/09 04:21:02;;;;;;;11.93;8.87;;;14.30;99.90;;;;;;4825770;29;20205;-64
2021/09/09 04:23:27;;;;;;;14.73;9.03;;;14.30;99.90;;;;;;4825737;29;20305;-62
2021/09/09 04:25:53;;;;;;;12.37;9.60;;;14.30;99.90;;;;;;4824654;29;20710;-64
2021/09/09 04:28:18;;;;;;;12.37;9.23;;;14.20;99.90;;;;;;4825426;29;20209;-63
2021/09/09 04:30:44;;;;;;;14.50;9.87;;;14.20;99.90;;;;;;4825444;29;20627;-62
2021/09/09 04:33:09;;;;;;;13.37;9.90;;;14.10;99.90;;;;;;4825659;29;20193;-62
2021/09/09 04:35:35;;;;;;;12.57;9.20;;;14.00;99.90;;;;;;4825522;29;20700;-62
2021/09/09 04:38:00;;;;;;;9.83;8.10;;;14.00;99.90;;;;;;4822958;29;20233;-62
2021/09/09 04:40:26;;;;;;;15.47;8.90;;;14.00;99.90;;;;;;4823588;29;20186;-62
2021/09/09 04:42:52;;;;;;;15.90;9.57;;;13.90;99.90;;;;;;4824798;29;20177;-62
2021/09/09 04:45:17;;;;;;;16.00;9.67;;;14.00;99.90;;;;;;4823378;29;20209;-63
2021/09/09 04:47:43;;;;;;;11.33;9.20;;;14.00;99.90;;;;;;4824143;29;20215;-64
2021/09/09 04:50:09;;;;;;;11.00;9.53;;;14.00;99.90;;;;;;4825204;29;20202;-62
2021/09/09 04:52:34;;;;;;;14.17;9.47;;;14.10;99.90;;;;;;4824079;29;20197;-63
2021/09/09 04:55:00;;;;;;;11.70;8.47;;;14.10;99.90;;;;;;4824664;29;20453;-62
2021/09/09 04:57:25;;;;;;;14.70;8.63;;;14.20;99.90;;;;;;4825162;29;20217;-64
2021/09/09 04:59:51;;;;;;;11.27;8.53;;;14.30;99.90;;;;;;4823225;29;20214;-62
2021/09/09 05:02:16;;;;;;;14.20;9.30;;;14.30;99.90;;;;;;4823569;29;20185;-62
2021/09/09 05:04:42;;;;;;;12.93;8.83;;;14.40;99.90;;;;;;4824364;29;20216;-63
2021/09/09 05:07:08;;;;;;;11.70;8.90;;;14.40;99.90;;;;;;4823982;29;20235;-63
2021/09/09 05:09:33;;;;;;;10.70;7.67;;;14.50;99.90;;;;;;4824135;29;20688;-63
2021/09/09 05:11:59;;;;;;;11.57;7.80;;;14.60;99.90;;;;;;4824486;29;20571;-64
2021/09/09 05:14:24;;;;;;;10.43;8.33;;;14.60;99.90;;;;;;4825260;29;20210;-62
2021/09/09 05:16:50;;;;;;;12.90;9.00;;;14.70;99.90;;;;;;4825030;29;20346;-63
2021/09/09 05:19:16;;;;;;;11.30;8.40;;;14.80;99.90;;;;;;4824691;29;20228;-64
2021/09/09 05:21:41;;;;;;;11.70;8.57;;;14.80;99.90;;;;;;4825134;29;20645;-64
2021/09/09 05:24:07;;;;;;;20.80;9.00;;;14.90;99.90;;;;;;4822253;29;20269;-63
2021/09/09 05:26:32;;;;;;;9.63;8.63;;;14.90;99.90;;;;;;4825020;29;20248;-64
2021/09/09 05:28:58;;;;;;;9.90;8.37;;;15.00;99.90;;;;;;4822611;29;20274;-64
2021/09/09 05:31:23;;;;;;;12.63;8.80;;;15.00;99.90;;;;;;4824322;29;20186;-63
2021/09/09 05:33:49;;;;;;;11.73;8.83;;;15.10;99.90;;;;;;4824687;29;20296;-63
2021/09/09 05:36:16;;;;;;;11.17;9.03;;;15.20;99.90;;;;;;4820594;29;20716;-63
2021/09/09 05:38:41;;;;;;;15.67;8.80;;;15.30;99.90;;;;;;4823012;29;20206;-63
2021/09/09 05:41:07;;;;;;;13.10;9.90;;;15.30;99.90;;;;;;4811122;29;20937;-63
2021/09/09 05:43:33;;;;;;;10.97;8.83;;;15.40;99.90;;;;;;4817155;29;20213;-63
2021/09/09 05:45:58;;;;;;;14.80;9.80;;;15.50;99.90;;;;;;4820883;29;20192;-63
2021/09/09 05:48:24;;;;;;;12.50;9.20;;;15.60;99.90;;;;;;4819637;29;20213;-63
2021/09/09 05:50:49;;;;;;;13.70;9.80;;;15.70;99.90;;;;;;4820303;29;20220;-64
2021/09/09 05:53:15;;;;;;;10.97;9.77;;;15.80;99.90;;;;;;4818758;29;20672;-63
2021/09/09 05:55:40;;;;;;;14.67;9.97;;;15.90;99.90;;;;;;4822105;29;20618;-64
2021/09/09 05:58:06;;;;;;;13.60;9.70;;;16.00;99.90;;;;;;4822468;29;20641;-63
2021/09/09 06:00:32;;;;;;;10.37;8.43;;;16.10;99.90;;;;;;4821690;29;20235;-64
2021/09/09 06:03:02;;;;;;;12.93;10.83;;;16.20;99.90;;;;;;4822815;29;20433;-64
2021/09/09 06:05:29;;;;;;;14.20;9.47;;;16.30;99.90;;;;;;4821214;29;20397;-63
2021/09/09 06:07:55;;;;;;;13.57;10.40;;;16.40;99.90;;;;;;4820571;29;20480;-64
2021/09/09 06:10:21;;;;;;;12.90;11.17;;;16.50;99.90;;;;;;4820760;29;20473;-63
2021/09/09 06:12:47;;;;;;;13.77;10.07;;;16.60;99.90;;;;;;4816184;29;20412;-64
2021/09/09 06:15:13;;;;;;;9.87;8.90;;;16.80;99.90;;;;;;4811537;29;20830;-63
2021/09/09 06:17:38;;;;;;;12.10;9.40;;;16.90;99.90;;;;;;4820239;29;20222;-63
2021/09/09 06:20:05;;;;;;;14.77;9.67;;;17.00;99.90;;;;;;4823350;29;20288;-63
2021/09/09 06:22:30;;;;;;;11.37;8.97;;;17.10;99.90;;;;;;4822078;29;20234;-63
2021/09/09 06:24:56;;;;;;;12.07;8.37;;;17.20;99.90;;;;;;4825489;29;20460;-63
2021/09/09 06:27:22;;;;;;;16.60;9.93;;;17.40;99.90;;;;;;4822897;29;20194;-64
2021/09/09 06:29:47;;;;;;;10.90;8.83;;;17.50;99.90;;;;;;4817516;29;20214;-63
2021/09/09 06:32:13;;;;;;;15.50;9.00;;;17.60;99.90;;;;;;4821041;29;20227;-63
2021/09/09 06:34:38;;;;;;;10.33;7.87;;;17.70;99.90;;;;;;4823926;29;20793;-63
2021/09/09 06:37:04;;;;;;;8.57;6.67;;;17.80;99.90;;;;;;4823214;29;20222;-64
2021/09/09 06:39:30;;;;;;;8.80;6.87;;;18.00;99.90;;;;;;4821547;29;20638;-63
2021/09/09 06:41:55;;;;;;;8.93;6.47;;;18.00;99.90;;;;;;4816159;29;20217;-64
2021/09/09 06:44:21;;;;;;;14.53;7.90;;;18.10;99.90;;;;;;4807400;29;20446;-63
2021/09/09 06:46:47;;;;;;;8.77;7.13;;;18.20;99.90;;;;;;4807196;29;20654;-64
2021/09/09 06:49:12;;;;;;;7.83;5.87;;;18.30;99.90;;;;;;4807133;29;20215;-63
2021/09/09 06:51:39;;;;;;;7.73;5.63;;;18.40;99.90;;;;;;4813311;29;20190;-63
2021/09/09 06:54:05;;;;;;;7.40;5.93;;;18.50;99.90;;;;;;4824102;29;20225;-63
2021/09/09 06:56:31;;;;;;;11.83;4.77;;;18.60;99.90;;;;;;4822984;29;20468;-63
2021/09/09 06:58:56;;;;;;;6.33;5.57;;;18.80;99.90;;;;;;4817244;29;20509;-63
2021/09/09 07:01:22;;;;;;;9.40;5.87;;;18.90;99.90;;;;;;4807768;29;20258;-64
2021/09/09 07:03:48;;;;;;;7.30;5.00;;;19.00;99.90;;;;;;4821412;29;20711;-65
2021/09/09 07:06:15;;;;;;;7.93;5.87;;;19.10;99.90;;;;;;4820169;29;20198;-63
2021/09/09 07:08:41;;;;;;;6.23;5.13;;;19.30;99.90;;;;;;4823323;29;20244;-63
2021/09/09 07:11:06;;;;;;;11.53;4.97;;;19.40;99.90;;;;;;4820238;29;20436;-64
2021/09/09 07:13:32;;;;;;;6.00;5.10;;;19.50;99.90;;;;;;4820032;29;20290;-64
2021/09/09 07:15:59;;;;;;;5.70;4.10;;;19.70;99.90;;;;;;4811851;29;20818;-64
2021/09/09 07:18:28;;;;;;;5.33;3.93;;;19.80;99.80;;;;;;4806668;29;20224;-63
2021/09/09 07:20:54;;;;;;;7.93;4.30;;;20.00;99.30;;;;;;4815917;29;20506;-63
2021/09/09 07:23:20;;;;;;;5.20;4.37;;;20.10;99.20;;;;;;4816708;29;20479;-63
2021/09/09 07:25:46;;;;;;;5.23;3.70;;;20.20;98.40;;;;;;4821760;29;20441;-64
2021/09/09 07:28:12;;;;;;;8.80;4.07;;;20.30;98.00;;;;;;4827122;29;20244;-64
2021/09/09 07:30:38;;;;;;;4.73;3.90;;;20.30;97.80;;;;;;4824037;29;20454;-64
2021/09/09 07:33:04;;;;;;;8.17;3.87;;;20.40;98.10;;;;;;4818532;29;20925;-63
2021/09/09 07:35:30;;;;;;;5.23;3.60;;;20.50;98.00;;;;;;4819477;29;20235;-63
2021/09/09 07:37:56;;;;;;;7.27;4.00;;;20.50;97.60;;;;;;4823709;29;20816;-63
2021/09/09 07:40:22;;;;;;;7.60;3.80;;;20.60;97.40;;;;;;4814351;29;20422;-64
2021/09/09 07:42:48;;;;;;;4.10;3.80;;;20.70;97.10;;;;;;4812626;29;20668;-63
2021/09/09 07:45:14;;;;;;;8.20;4.53;;;20.70;97.10;;;;;;4816731;29;20467;-64
2021/09/09 07:47:40;;;;;;;7.70;4.57;;;20.80;96.60;;;;;;4809489;29;21273;-64
2021/09/09 07:50:10;;;;;;;6.43;4.40;;;20.90;96.60;;;;;;4802018;29;20757;-64
2021/09/09 07:52:37;;;;;;;8.10;4.30;;;20.90;96.70;;;;;;4816295;29;20168;-64
2021/09/09 07:55:03;;;;;;;5.37;3.67;;;21.00;96.50;;;;;;4815032;29;20606;-64
2021/09/09 07:57:29;;;;;;;3.93;3.60;;;21.10;96.30;;;;;;4819275;29;20822;-64
2021/09/09 07:59:54;;;;;;;4.33;3.90;;;21.20;96.30;;;;;;4824772;29;20478;-64
2021/09/09 08:02:20;;;;;;;3.73;3.40;;;21.20;96.30;;;;;;4819437;29;20196;-65
2021/09/09 08:04:45;;;;;;;5.60;5.00;;;21.30;96.10;;;;;;4811861;29;20220;-62
2021/09/09 08:07:11;;;;;;;5.87;3.70;;;21.40;96.10;;;;;;4818147;29;20652;-61
2021/09/09 08:09:37;;;;;;;5.07;4.30;;;21.40;95.80;;;;;;4813589;29;20214;-62
2021/09/09 08:12:03;;;;;;;3.90;3.60;;;21.50;95.70;;;;;;4821493;29;20193;-62
2021/09/09 08:14:29;;;;;;;5.37;3.83;;;21.60;95.60;;;;;;4822945;29;20481;-64
2021/09/09 08:16:55;;;;;;;7.70;4.20;;;21.70;95.80;;;;;;4825398;29;20481;-64
2021/09/09 08:19:20;;;;;;;4.93;3.53;;;21.80;95.90;;;;;;4819450;29;20483;-63
2021/09/09 08:21:46;;;;;;;5.53;4.40;;;21.90;95.70;;;;;;4819973;29;20464;-64
2021/09/09 08:24:12;;;;;;;5.83;3.77;;;22.00;95.30;;;;;;4822946;29;20270;-64
2021/09/09 08:26:38;;;;;;;5.00;3.70;;;22.10;94.80;;;;;;4815162;29;20268;-63
2021/09/09 08:29:05;;;;;;;5.23;3.90;;;22.30;94.50;;;;;;4816383;29;20215;-62
2021/09/09 08:31:32;;;;;;;4.57;3.73;;;22.50;94.40;;;;;;4819978;29;20967;-63
2021/09/09 08:33:57;;;;;;;7.80;3.80;;;22.60;94.50;;;;;;4822715;29;20481;-64
2021/09/09 08:36:24;;;;;;;4.67;4.03;;;22.80;94.50;;;;;;4817826;29;20902;-64
2021/09/09 08:38:50;;;;;;;6.13;3.73;;;22.90;94.10;;;;;;4818698;29;20218;-63
2021/09/09 08:41:15;;;;;;;5.77;3.63;;;23.00;94.20;;;;;;4821514;29;20429;-63
2021/09/09 08:43:41;;;;;;;4.90;4.00;;;23.10;94.60;;;;;;4817995;29;20564;-64
2021/09/09 08:46:07;;;;;;;5.70;3.63;;;23.20;94.10;;;;;;4821405;29;20323;-63
2021/09/09 08:48:32;;;;;;;10.30;4.10;;;23.40;94.30;;;;;;4814534;29;20263;-63
2021/09/09 08:50:59;;;;;;;8.00;3.37;;;23.50;94.20;;;;;;4817802;29;20453;-64
2021/09/09 08:53:25;;;;;;;3.70;3.30;;;23.60;93.60;;;;;;4817763;29;20628;-63
2021/09/09 08:55:51;;;;;;;7.80;3.03;;;23.60;93.00;;;;;;4817555;29;20478;-63
2021/09/09 08:58:19;;;;;;;3.63;3.33;;;23.70;92.80;;;;;;4839071;29;20521;-63
2021/09/09 09:01:13;;;;;;;4.30;3.70;;;23.70;92.90;;;;;;4816067;29;20178;-63
2021/09/09 09:03:47;;;;;;;4.40;3.53;;;23.70;92.40;;;;;;4818131;29;20572;-63
2021/09/09 09:06:22;;;;;;;3.73;3.23;;;23.70;92.40;;;;;;4820960;29;20421;-63
2021/09/09 09:08:57;;;;;;;4.97;3.80;;;23.70;92.40;;;;;;4818602;29;20836;-63
2021/09/09 09:11:24;;;;;;;4.77;3.27;;;23.70;92.50;;;;;;4819454;29;20857;-65
2021/09/09 09:13:50;;;;;;;5.60;3.40;;;23.70;92.20;;;;;;4823718;29;20477;-63
2021/09/09 09:16:18;;;;;;;4.93;3.30;;;23.80;91.50;;;;;;4816274;29;20967;-65
2021/09/09 09:18:44;;;;;;;3.23;2.93;;;23.80;91.30;;;;;;4822280;29;20488;-63
2021/09/09 09:21:11;;;;;;;7.10;3.77;;;23.80;91.30;;;;;;4816658;29;20434;-64
2021/09/09 09:23:38;;;;;;;4.73;3.43;;;23.80;91.50;;;;;;4815583;29;20457;-63
2021/09/09 09:26:05;;;;;;;5.93;3.73;;;23.80;91.60;;;;;;4815735;29;20806;-63
2021/09/09 09:28:41;;;;;;;3.53;3.23;;;23.90;91.40;;;;;;4814186;29;20508;-63
2021/09/09 09:31:28;;;;;;;5.13;3.83;;;23.90;91.00;;;;;;4816528;29;20441;-63
2021/09/09 09:34:00;;;;;;;10.07;3.83;;;23.90;90.90;;;;;;4817031;29;20477;-63
2021/09/09 09:36:26;;;;;;;4.10;3.27;;;23.90;91.50;;;;;;4804785;29;20519;-63
2021/09/09 09:39:26;;;;;;;4.20;3.80;;;24.00;91.60;;;;;;4796317;29;20482;-63
2021/09/09 09:41:54;;;;;;;7.50;4.03;;;24.00;91.30;;;;;;4779960;29;20202;-63
2021/09/09 09:44:35;;;;;;;6.50;3.07;;;24.10;91.40;;;;;;4802220;29;20476;-64
2021/09/09 09:47:13;;;;;;;5.70;3.93;;;24.20;90.80;;;;;;4798603;29;20462;-63
2021/09/09 09:49:47;;;;;;;5.23;3.70;;;24.20;90.30;;;;;;4794834;29;20499;-63
2021/09/09 09:52:23;;;;;;;6.90;4.10;;;24.20;90.50;;;;;;4810482;29;20438;-64
2021/09/09 09:54:53;;;;;;;5.87;3.57;;;24.20;89.90;;;;;;4795159;29;20476;-63
2021/09/09 09:57:24;;;;;;;4.10;3.70;;;24.20;90.30;;;;;;4786454;29;20847;-64
2021/09/09 09:59:50;;;;;;;5.20;4.07;;;24.20;90.00;;;;;;4811927;29;20459;-62
2021/09/09 10:02:16;;;;;;;4.77;3.97;;;24.20;90.10;;;;;;4798905;29;20499;-63
2021/09/09 10:04:43;;;;;;;4.80;4.07;;;24.20;90.20;;;;;;4795124;29;20460;-63
2021/09/09 10:07:11;;;;;;;4.43;3.10;;;24.20;89.80;;;;;;4800691;29;20439;-62
2021/09/09 10:09:38;;;;;;;5.20;4.07;;;24.20;89.30;;;;;;4805068;29;20561;-63
2021/09/09 10:12:05;;;;;;;4.53;3.33;;;24.10;89.80;;;;;;4800393;29;21173;-63
2021/09/09 10:14:31;;;;;;;3.53;3.23;;;24.10;89.80;;;;;;4803839;29;20504;-62
2021/09/09 10:16:58;;;;;;;6.70;3.50;;;24.10;89.90;;;;;;4799849;29;20470;-63
2021/09/09 10:19:34;;;;;;;5.00;3.10;;;24.20;90.30;;;;;;4806411;29;20225;-63
2021/09/09 10:22:06;;;;;;;9.13;4.37;;;24.20;90.10;;;;;;4801099;29;20475;-62
2021/09/09 10:24:33;;;;;;;4.33;3.43;;;24.20;89.30;;;;;;4803092;29;20590;-62
2021/09/09 10:27:27;;;;;;;4.07;3.43;;;24.30;88.50;;;;;;4801394;29;20479;-63
2021/09/09 10:30:05;;;;;;;5.57;3.30;;;24.30;88.40;;;;;;4801757;29;20463;-63
2021/09/09 10:32:33;;;;;;;4.93;4.07;;;24.40;89.80;;;;;;4805421;29;20930;-64
2021/09/09 10:35:17;;;;;;;4.40;3.63;;;24.40;88.10;;;;;;4811948;29;20486;-62
2021/09/09 10:38:11;;;;;;;8.20;4.97;;;24.50;89.10;;;;;;4815096;29;20883;-62
2021/09/09 10:40:38;;;;;;;7.93;4.63;;;24.50;88.40;;;;;;4818261;29;20443;-62
2021/09/09 10:43:12;;;;;;;5.40;3.83;;;24.60;88.40;;;;;;4817149;29;20455;-62
2021/09/09 10:45:43;;;;;;;6.07;4.20;;;24.60;87.80;;;;;;4811767;29;20453;-62
2021/09/09 10:48:10;;;;;;;5.10;3.93;;;24.70;87.60;;;;;;4818569;29;20451;-62
2021/09/09 10:50:37;;;;;;;4.30;3.90;;;24.70;88.10;;;;;;4816871;29;20444;-63
2021/09/09 10:53:12;;;;;;;4.13;3.60;;;24.80;88.20;;;;;;4815660;29;21119;-64
2021/09/09 10:55:42;;;;;;;4.50;4.10;;;24.90;88.10;;;;;;4817648;29;20439;-62
2021/09/09 10:58:20;;;;;;;4.53;4.03;;;24.90;87.70;;;;;;4817982;29;20493;-63
2021/09/09 11:00:51;;;;;;;6.03;3.60;;;24.90;86.60;;;;;;4816485;29;20435;-63
2021/09/09 11:03:39;;;;;;;4.87;3.80;;;25.00;86.20;;;;;;4819197;29;20481;-63
2021/09/09 11:06:11;;;;;;;4.50;4.00;;;25.00;86.30;;;;;;4817418;29;20440;-63
2021/09/09 11:08:39;;;;;;;4.23;3.47;;;25.00;86.60;;;;;;4818773;29;20920;-63
2021/09/09 11:11:12;;;;;;;5.47;4.20;;;25.00;85.80;;;;;;4824298;29;20444;-64
2021/09/09 11:13:38;;;;;;;5.10;3.57;;;25.00;85.90;;;;;;4823717;29;20479;-63
2021/09/09 11:16:26;;;;;;;6.83;4.17;;;25.00;86.00;;;;;;4819594;29;20814;-65
2021/09/09 11:18:52;;;;;;;8.70;4.20;;;25.00;85.70;;;;;;4819298;29;20228;-64
2021/09/09 11:21:30;;;;;;;6.70;4.10;;;25.10;85.90;;;;;;4814441;29;20440;-66
2021/09/09 11:23:57;;;;;;;5.37;3.87;;;25.10;85.80;;;;;;4833951;29;20476;-64
2021/09/09 11:26:23;;;;;;;7.40;3.90;;;25.10;85.10;;;;;;4815161;29;20974;-65
2021/09/09 11:28:50;;;;;;;5.37;4.10;;;25.10;85.10;;;;;;4814136;29;20479;-65
2021/09/09 11:31:23;;;;;;;5.80;4.27;;;25.10;85.20;;;;;;4816558;29;20212;-63
2021/09/09 11:34:05;;;;;;;5.07;4.07;;;25.10;86.20;;;;;;4815771;29;20501;-64
2021/09/09 11:36:36;;;;;;;4.03;3.63;;;25.10;86.00;;;;;;4814574;29;20841;-64
2021/09/09 11:39:14;;;;;;;4.50;3.63;;;25.20;86.80;;;;;;4812244;29;20548;-64
2021/09/09 11:41:42;;;;;;;5.80;4.30;;;25.20;86.30;;;;;;4813153;29;20441;-64
2021/09/09 11:44:23;;;;;;;5.40;4.20;;;25.20;86.20;;;;;;4811750;29;20501;-63
2021/09/09 11:46:51;;;;;;;3.77;3.37;;;25.20;85.40;;;;;;4826555;29;22159;-65
2021/09/09 11:49:19;;;;;;;7.20;3.73;;;25.30;85.20;;;;;;4818138;29;20479;-63
2021/09/09 11:51:51;;;;;;;4.63;4.23;;;25.30;85.90;;;;;;4815654;29;20437;-63
2021/09/09 11:54:20;;;;;;;8.57;4.40;;;25.30;85.90;;;;;;4806374;29;20454;-63
2021/09/09 11:56:47;;;;;;;4.40;3.83;;;25.40;85.70;;;;;;4820801;29;20476;-64
2021/09/09 11:59:20;;;;;;;4.70;3.37;;;25.40;84.60;;;;;;4814982;29;20472;-62
2021/09/09 12:01:51;;;;;;;5.43;4.40;;;25.40;83.60;;;;;;4818218;29;20933;-64
2021/09/09 12:04:20;;;;;;;4.90;4.00;;;25.50;83.40;;;;;;4817226;29;20505;-63
2021/09/09 12:06:47;;;;;;;3.80;3.50;;;25.50;83.40;;;;;;4819299;29;20471;-63
2021/09/09 12:09:25;;;;;;;5.80;3.87;;;25.50;83.00;;;;;;4815409;29;20608;-63
2021/09/09 12:12:06;;;;;;;4.30;3.90;;;25.50;83.00;;;;;;4818519;29;20559;-64
2021/09/09 12:14:33;;;;;;;4.83;3.93;;;25.50;82.80;;;;;;4821715;29;20496;-63
2021/09/09 12:17:07;;;;;;;4.63;3.73;;;25.50;82.70;;;;;;4818657;29;20476;-62
2021/09/09 12:20:02;;;;;;;4.90;3.93;;;25.50;82.50;;;;;;4815474;29;20465;-62
2021/09/09 12:22:45;;;;;;;7.23;3.73;;;25.50;82.40;;;;;;4817321;29;20441;-63
2021/09/09 12:25:24;;;;;;;6.13;3.93;;;25.50;80.90;;;;;;4816553;29;20560;-64
2021/09/09 12:27:59;;;;;;;4.13;3.73;;;25.50;81.20;;;;;;4833212;29;20480;-64
2021/09/09 12:30:27;;;;;;;3.63;3.30;;;25.50;80.70;;;;;;4816319;29;20432;-65
2021/09/09 12:32:53;;;;;;;4.80;4.00;;;25.50;80.70;;;;;;4814664;29;20455;-65
2021/09/09 12:35:21;;;;;;;7.87;4.63;;;25.50;80.90;;;;;;4820064;29;20472;-64
2021/09/09 12:38:07;;;;;;;4.40;3.80;;;25.50;81.90;;;;;;4818853;29;20478;-64
2021/09/09 12:40:38;;;;;;;4.77;3.37;;;25.50;81.20;;;;;;4817414;29;20472;-65
2021/09/09 12:43:23;;;;;;;5.10;3.53;;;25.50;81.10;;;;;;4818006;29;20447;-64